Santa Maria, CA (93455)

3:57 AM PST on February 01, 2015 (GMT -0800)
Harp Springs | Change Station
CLOSE
Current Station
Personal Weather Station
Location: Santa Maria, CA
Elevation: 466 ft
Nearby Weather Stations

Elev 466 ft 34.86 °N, 120.41 °W | Updated 7 minutes ago

Clear
Clear
43.3 °F
Feels Like 41 °F
N
4.7
Wind Variable Wind from East

Today
High -- | Low -- °F
--% Chance of Precip.
Yesterday
High -- | Low -- °F
Precip. -- in
7:00 AM 5:30 PM
Waxing Gibbous, 94% visible
Pressure 30.08 in
Visibility 7.0 miles
Clouds Clear
Windchill 41 °F
Dew Point 42 °F
Humidity 97%
Rainfall 0.00 in
Snow Depth Not available.
UV 0 out of 12
Pollen 6.70 out of 12
Air Quality Not available.
Flu Activity Not available.
METAR KSMX 011051Z AUTO 14003KT 7SM CLR 08/06 A3007 RMK AO2 SLP184 T00830056 TSNO $

More Conditions Fewer Conditions

Pressure 30.08 in
Visibility 7.0 miles
Clouds Clear
Windchill 41 °F
Dew Point 42 °F
Humidity 97%
Rainfall 0.00 in
Snow Depth Not available.
UV 0 out of 12
Pollen 6.70 out of 12
Air Quality Not available.
Flu Activity Not available.
METAR KSMX 011051Z AUTO 14003KT 7SM CLR 08/06 A3007 RMK AO2 SLP184 T00830056 TSNO $

More Conditions Fewer Conditions

10-Day Weather Forecast

Almanac

Astronomy

Feb. 01, 2015 Rise Set
Actual Time
Civil Twilight
Nautical Twilight
Astronomical Twilight
Moon
Length of Visible Light
Length of Day
Tomorrow will be .
, % of the Moon is Illuminated

Today's Extremes

State Highs State Lows

Community

WunderPhotos

Upload Photos

1,792,346 photos uploaded!

WunderBlogs® & News

Nearby

Air Quality

  Air Quality AQ Index Pollutant
Not available.

Snow Depth

Station Depth Elevation

Earthquake Activity

City Distance Mag. Time & Date
Minimum magnitude displayed is 2.5.

Coastal Water Temperatures

Place Temperature

Nearby Weather Stations